Flight Track Log - Related Links

Times and Time Zones

All times are in EDT time to prevent confusion due to time zone crossing. See the N870RW flight status page for this flight to view local times or setup timezone preferences in your user account.

Time Position Orientation Groundspeed Altitude Reporting Facility
EDT Latitude Longitude Course Direction KTS MPH feet Rate Location/Type
Sun 08:03:49 PM 40.8167 -73.8500 57° Northeast 169 194 2,400  Level New York TRACON
Sun 08:04:43 PM 40.8500 -73.7833 131° Southeast 240 276 4,800 2,684 Climbing New York TRACON
Sun 08:05:43 PM 40.8167 -73.7333 189° South 297 342 7,500 2,650 Climbing New York TRACON
Sun 08:06:43 PM 40.7333 -73.7500 189° South 295 339 10,100 1,700 Climbing New York TRACON
Sun 08:07:43 PM 40.6500 -73.7667 148° Southeast 306 352 10,900 674 Climbing New York TRACON
Sun 08:09:41 PM 40.4547 -73.6050 144° Southeast 380 437 12,100 972 Climbing New York Center
Sun 08:10:42 PM 40.3711 -73.5253 144° Southeast 400 460 13,800 2,017 Climbing New York Center
Sun 08:11:40 PM 40.2653 -73.4258 147° Southeast 424 488 16,100 2,034 Climbing New York Center
Sun 08:12:40 PM 40.1731 -73.3461 186° South 443 510 17,800 1,339 Climbing New York Center
Sun 08:13:41 PM 40.0519 -73.3633 219° Southwest 400 460 18,800 1,149 Climbing New York Center
Sun 08:14:14 PM 40.0061 -73.4111 218° Southwest 376 433 19,600 1,613 Climbing Washington Center
Sun 08:15:14 PM 39.9203 -73.4975 219° Southwest 376 433 21,300 1,636 Climbing Washington Center
Sun 08:16:15 PM 39.8322 -73.5894 208° Southwest 396 456 22,900 836 Climbing Washington Center
Sun 08:17:16 PM 39.7333 -73.6569 220° Southwest 409 471 23,000 605 Climbing Washington Center
Sun 08:18:14 PM 39.6492 -73.7481 222° Southwest 409 471 24,100 1,109 Climbing Washington Center
Sun 08:19:15 PM 39.5633 -73.8472 221° Southwest 409 471 25,200 1,091 Climbing Washington Center
Sun 08:20:15 PM 39.4750 -73.9461 221° Southwest 419 482 26,300 1,200 Climbing Washington Center
Sun 08:21:15 PM 39.3847 -74.0475 221° Southwest 430 495 27,600 1,361 Climbing Washington Center
Sun 08:22:14 PM 39.2942 -74.1489 220° Southwest 430 495 29,000 1,210 Climbing Washington Center
Sun 08:23:14 PM 39.2017 -74.2497 216° Southwest 430 495 30,000 496 Climbing Washington Center
Sun 08:24:15 PM 39.1006 -74.3453 217° Southwest 440 506 30,000  Level Washington Center
Sun 08:25:16 PM 38.9994 -74.4431 215° Southwest 453 521 30,000  Level Washington Center
Sun 08:26:16 PM 38.9189 -74.5164 215° Southwest 458 527 30,000  Level Washington Center
Sun 08:27:14 PM 38.8072 -74.6167 216° Southwest 452 520 30,000  Level Washington Center
Sun 08:28:14 PM 38.7078 -74.7083 216° Southwest 452 520 30,000  Level Washington Center
Sun 08:29:15 PM 38.6083 -74.8000 213° Southwest 452 520 30,000  Level Washington Center
Sun 08:30:15 PM 38.5067 -74.8833 216° Southwest 447 514 30,000  Level Washington Center
Sun 08:31:16 PM 38.4072 -74.9744 216° Southwest 447 514 30,000  Level Washington Center
Sun 08:32:14 PM 38.3011 -75.0731 216° Southwest 447 514 30,000  Level Washington Center
Sun 08:33:14 PM 38.1994 -75.1664 214° Southwest 447 514 30,000  Level Washington Center
Sun 08:34:15 PM 38.0956 -75.2567 215° Southwest 447 514 30,000  Level Washington Center
Sun 08:35:16 PM 37.9936 -75.3467 215° Southwest 447 514 30,000  Level Washington Center
Sun 08:36:16 PM 37.8936 -75.4367 215° Southwest 447 514 30,000  Level Washington Center
Sun 08:37:14 PM 37.7894 -75.5286 214° Southwest 447 514 30,000  Level Washington Center
Sun 08:38:14 PM 37.6872 -75.6156 214° Southwest 447 514 30,000  Level Washington Center
Sun 08:39:15 PM 37.5850 -75.7019 215° Southwest 447 514 30,000  Level Washington Center
Sun 08:40:14 PM 37.4828 -75.7933 215° Southwest 447 514 30,000  Level Washington Center
Sun 08:41:14 PM 37.3822 -75.8819 214° Southwest 447 514 30,000  Level Washington Center
Sun 08:42:16 PM 37.2819 -75.9678 214° Southwest 447 514 30,000  Level Washington Center
Sun 08:43:16 PM 37.1775 -76.0558 215° Southwest 447 514 30,000  Level Washington Center
Sun 08:44:17 PM 37.0789 -76.1411 212° Southwest 447 514 30,000  Level Washington Center
Sun 08:45:16 PM 36.9847 -76.2158 214° Southwest 447 514 30,000  Level Washington Center
Sun 08:46:14 PM 36.8800 -76.3033 214° Southwest 447 514 30,000  Level Washington Center
Sun 08:47:15 PM 36.7772 -76.3906 216° Southwest 447 514 30,000  Level Washington Center
Sun 08:48:15 PM 36.6764 -76.4828 213° Southwest 447 514 30,000  Level Washington Center
Sun 08:49:16 PM 36.5736 -76.5669 215° Southwest 447 514 30,000  Level Washington Center
Sun 08:50:14 PM 36.4664 -76.6586 214° Southwest 447 514 30,000  Level Washington Center
Sun 08:51:15 PM 36.3633 -76.7450 213° Southwest 452 520 30,000  Level Washington Center
Sun 08:52:16 PM 36.2581 -76.8311 215° Southwest 452 520 30,000  Level Washington Center
Sun 08:53:14 PM 36.1550 -76.9194 213° Southwest 452 520 30,000  Level Washington Center
Sun 08:54:14 PM 36.0475 -77.0050 213° Southwest 452 520 30,000  Level Washington Center
Sun 08:55:15 PM 35.9400 -77.0903 216° Southwest 452 520 30,000  Level Washington Center
Sun 08:56:16 PM 35.8408 -77.1781 213° Southwest 458 527 30,000  Level Washington Center
Sun 08:57:14 PM 35.7356 -77.2631 214° Southwest 453 521 30,000  Level Washington Center
Sun 08:58:15 PM 35.6278 -77.3528 212° Southwest 453 521 30,000  Level Washington Center
Sun 08:59:16 PM 35.5136 -77.4419 214° Southwest 453 521 30,000  Level Washington Center
Sun 09:00:14 PM 35.4081 -77.5289 218° Southwest 458 527 30,000  Level Washington Center
Sun 09:01:15 PM 35.3083 -77.6231 220° Southwest 458 527 30,000  Level Washington Center
Sun 09:02:15 PM 35.2128 -77.7197 222° Southwest 458 527 30,000  Level Washington Center
Sun 09:03:16 PM 35.1192 -77.8217 221° Southwest 458 527 30,000  Level Washington Center
Sun 09:05:10 PM 34.9331 -78.0158 218° Southwest 466 536 30,000  Level Jacksonville Center
Sun 09:06:10 PM 34.8325 -78.1128 220° Southwest 466 536 30,000  Level Jacksonville Center
Sun 09:07:10 PM 34.7544 -78.1928 222° Southwest 472 543 30,000  Level Jacksonville Center
Sun 09:08:10 PM 34.6419 -78.3150 220° Southwest 467 537 30,000  Level Jacksonville Center
Sun 09:09:10 PM 34.5456 -78.4133 219° Southwest 467 537 30,000  Level Jacksonville Center
Sun 09:10:10 PM 34.4547 -78.5036 220° Southwest 474 545 30,000  Level Jacksonville Center
Sun 09:11:10 PM 34.3581 -78.6017 220° Southwest 469 540 30,000  Level Jacksonville Center
Sun 09:12:10 PM 34.2611 -78.6994 221° Southwest 469 540 30,000  Level Jacksonville Center
Sun 09:13:10 PM 34.1622 -78.8019 226° Southwest 469 540 30,000  Level Jacksonville Center
Sun 09:14:10 PM 34.0742 -78.9114 225° Southwest 469 540 30,000  Level Jacksonville Center
Sun 09:15:10 PM 33.9856 -79.0181 224° Southwest 463 533 30,000  Level Jacksonville Center
Sun 09:16:10 PM 33.8950 -79.1247 226° Southwest 458 527 30,000 -350 Level Jacksonville Center
Sun 09:17:10 PM 33.8064 -79.2336 224° Southwest 458 527 29,300 -850 Descending Jacksonville Center
Sun 09:18:10 PM 33.7072 -79.3475 225° Southwest 446 513 28,300 -1,050 Descending Jacksonville Center
Sun 09:19:10 PM 33.6225 -79.4481 225° Southwest 441 507 27,200 -1,050 Descending Jacksonville Center
Sun 09:20:10 PM 33.5336 -79.5536 226° Southwest 441 507 26,200 -1,000 Descending Jacksonville Center
Sun 09:21:10 PM 33.4525 -79.6539 225° Southwest 441 507 25,200 -1,000 Descending Jacksonville Center
Sun 09:22:10 PM 33.3675 -79.7564 224° Southwest 436 502 24,200 -1,000 Descending Jacksonville Center
Sun 09:23:10 PM 33.2844 -79.8539 225° Southwest 436 502 23,200 -1,000 Descending Jacksonville Center
Sun 09:24:10 PM 33.2011 -79.9533 224° Southwest 425 489 22,200 -600 Descending Jacksonville Center
Sun 09:25:10 PM 33.1197 -80.0478 226° Southwest 425 489 22,000 -100 Descending Jacksonville Center
Sun 09:26:10 PM 33.0467 -80.1369 225° Southwest 425 489 22,000  Level Jacksonville Center
Sun 09:27:10 PM 32.9633 -80.2361 223° Southwest 419 482 22,000 -750 Level Jacksonville Center
Sun 09:28:10 PM 32.8775 -80.3325 225° Southwest 427 491 20,500 -1,800 Descending Jacksonville Center
Sun 09:29:10 PM 32.8000 -80.4236 225° Southwest 416 479 18,400 -2,100 Descending Jacksonville Center
Sun 09:30:10 PM 32.7244 -80.5122 225° Southwest 404 465 16,300 -2,000 Descending Jacksonville Center
Sun 09:31:10 PM 32.6531 -80.5981 224° Southwest 385 443 14,400 -1,900 Descending Jacksonville Center
Sun 09:32:10 PM 32.5814 -80.6811 225° Southwest 375 432 12,500 -1,700 Descending Jacksonville Center
Sun 09:33:10 PM 32.5119 -80.7642 228° Southwest 363 418 11,000 -950 Descending Jacksonville Center
Sun 09:34:10 PM 32.4506 -80.8444 231° Southwest 357 411 10,600 -1,000 Descending Jacksonville Center
Sun 09:35:10 PM 32.3936 -80.9292 233° Southwest 303 349 9,000 -1,750 Descending Jacksonville Center
Sun 09:36:10 PM 32.3506 -80.9967 232° Southwest 292 336 7,100 -2,000 Descending Jacksonville Center
Sun 09:37:10 PM 32.3017 -81.0714 234° Southwest 292 336 5,000 -1,600 Descending Jacksonville Center
Sun 09:38:10 PM 32.2567 -81.1433 244° Southwest 271 312 3,900 -850 Descending Jacksonville Center
Sun 09:39:10 PM 32.2306 -81.2078 249° West 220 253 3,300 -600 Descending Jacksonville Center
Sun 09:40:10 PM 32.2106 -81.2694 208° Southwest 210 242 2,700 -600 Descending Jacksonville Center
Sun 09:42:10 PM 32.1503 -81.3075 208° Southwest 129 148 1,500 -600 Descending Jacksonville Center

Login

Don't have an account? Register now (free) for customized features, flight alerts, and more!